createdAt,value
2019-02-28T00:00:06.686Z,22.10
2019-02-28T00:05:14.399Z,22.60
2019-02-28T00:10:19.818Z,22.60
2019-02-28T00:15:25.386Z,21.00
2019-02-28T00:20:31.967Z,22.17
2019-02-28T00:25:38.584Z,22.73
2019-02-28T00:30:43.828Z,20.67
2019-02-28T00:35:49.181Z,19.87
2019-02-28T00:40:55.665Z,20.37
2019-02-28T00:46:01.421Z,20.37
2019-02-28T00:51:06.683Z,20.83
2019-02-28T00:56:11.932Z,21.63
2019-02-28T01:01:17.805Z,21.57
2019-02-28T01:06:23.179Z,21.83
2019-02-28T01:11:28.427Z,22.50
2019-02-28T01:16:34.088Z,22.73
2019-02-28T01:21:39.491Z,22.50
2019-02-28T01:26:46.773Z,23.90
2019-02-28T01:31:51.810Z,22.90
2019-02-28T01:36:57.053Z,24.87
2019-02-28T01:42:02.573Z,25.03
2019-02-28T01:47:07.874Z,24.63
2019-02-28T01:52:13.488Z,24.53
2019-02-28T01:57:18.904Z,24.63
2019-02-28T02:02:24.281Z,25.93
2019-02-28T02:07:33.336Z,24.13
2019-02-28T02:12:38.658Z,25.47
2019-02-28T02:17:44.026Z,27.03
2019-02-28T02:22:49.282Z,25.70
2019-02-28T02:27:54.501Z,25.67
2019-02-28T02:32:59.858Z,26.63
2019-02-28T02:38:05.374Z,27.87
2019-02-28T02:43:10.521Z,28.40
2019-02-28T02:48:15.766Z,29.60
2019-02-28T02:53:20.928Z,28.93
2019-02-28T02:58:27.990Z,31.87
2019-02-28T03:03:32.967Z,32.40
2019-02-28T03:08:38.022Z,34.77
2019-02-28T03:13:44.190Z,31.90
2019-02-28T03:18:56.945Z,35.90
2019-02-28T03:23:56.451Z,37.23
2019-02-28T03:29:07.558Z,38.03
2019-02-28T03:34:13.422Z,38.10
2019-02-28T03:39:17.198Z,41.80
2019-02-28T03:44:22.599Z,41.13
2019-02-28T03:49:27.795Z,45.27
2019-02-28T03:54:33.498Z,45.87
2019-02-28T03:59:38.779Z,45.13
2019-02-28T04:04:49.092Z,47.03
2019-02-28T04:09:51.226Z,44.90
2019-02-28T04:14:56.618Z,45.67
2019-02-28T04:20:01.917Z,47.13
2019-02-28T04:25:10.286Z,43.73
2019-02-28T04:30:16.257Z,42.80
2019-02-28T04:35:25.265Z,44.23
2019-02-28T04:40:29.125Z,45.60
2019-02-28T04:45:34.584Z,39.00
2019-02-28T04:50:39.743Z,40.73
2019-02-28T04:55:45.201Z,40.87
2019-02-28T05:00:50.314Z,44.90
2019-02-28T05:05:55.715Z,46.77
2019-02-28T05:11:01.025Z,43.37
2019-02-28T05:16:09.382Z,44.80
2019-02-28T05:21:16.590Z,45.90
2019-02-28T05:26:23.420Z,47.03
2019-02-28T05:31:28.057Z,47.70
2019-02-28T05:36:34.636Z,46.73
2019-02-28T05:41:40.381Z,48.90
2019-02-28T05:46:45.536Z,47.50
2019-02-28T05:51:50.978Z,49.10
2019-02-28T05:56:56.460Z,49.33
2019-02-28T06:02:01.973Z,53.47
2019-02-28T06:07:09.333Z,51.00
2019-02-28T06:12:14.402Z,51.90
2019-02-28T06:17:20.910Z,57.27
2019-02-28T06:22:26.301Z,55.07
2019-02-28T06:27:40.868Z,50.50
2019-02-28T06:32:38.689Z,60.33
2019-02-28T06:37:44.145Z,58.77
2019-02-28T06:42:49.401Z,57.60
2019-02-28T06:47:54.858Z,56.77
2019-02-28T06:53:00.319Z,61.90
2019-02-28T06:58:05.787Z,53.27
2019-02-28T07:03:11.183Z,60.70
2019-02-28T07:08:16.510Z,50.10
2019-02-28T07:13:21.754Z,54.50
2019-02-28T07:18:26.906Z,51.90
2019-02-28T07:23:32.473Z,49.00
2019-02-28T07:28:37.855Z,57.37
2019-02-28T07:33:44.586Z,55.77
2019-02-28T07:38:50.561Z,51.23
2019-02-28T07:43:55.686Z,46.90
2019-02-28T07:49:01.606Z,47.63
2019-02-28T07:54:06.991Z,51.70
2019-02-28T07:59:12.246Z,47.50
2019-02-28T08:04:18.514Z,48.30
2019-02-28T08:09:27.262Z,45.87
2019-02-28T08:14:32.624Z,39.63
2019-02-28T08:19:37.973Z,32.97
2019-02-28T08:24:43.314Z,43.07
2019-02-28T08:29:48.494Z,34.70
2019-02-28T08:34:55.493Z,38.63
2019-02-28T08:40:02.011Z,37.70
2019-02-28T08:45:13.112Z,37.77
2019-02-28T08:50:24.053Z,33.63
2019-02-28T08:55:29.573Z,31.13
2019-02-28T09:00:35.297Z,32.07
2019-02-28T09:05:40.549Z,33.33
2019-02-28T09:10:46.972Z,37.90
2019-02-28T09:15:53.103Z,31.90
2019-02-28T09:20:58.461Z,30.07
2019-02-28T09:26:03.783Z,29.27
2019-02-28T09:31:09.180Z,28.20
2019-02-28T09:36:20.220Z,34.77
2019-02-28T09:41:21.834Z,27.73
2019-02-28T09:46:27.089Z,31.37
2019-02-28T09:51:32.851Z,25.73
2019-02-28T09:56:41.217Z,26.33
2019-02-28T10:01:45.527Z,23.57
2019-02-28T10:06:51.612Z,26.47
2019-02-28T10:11:57.680Z,29.77
2019-02-28T10:17:03.048Z,24.43
2019-02-28T10:22:10.114Z,26.53
2019-02-28T10:27:15.902Z,22.93
2019-02-28T10:32:21.280Z,25.07
2019-02-28T10:37:26.848Z,19.93
2019-02-28T10:42:32.282Z,17.90
2019-02-28T10:47:37.545Z,20.17
2019-02-28T10:52:43.007Z,17.40
2019-02-28T10:57:49.370Z,15.33
2019-02-28T11:02:57.477Z,15.93
2019-02-28T11:08:02.928Z,11.60
2019-02-28T11:13:11.401Z,12.57
2019-02-28T11:18:16.963Z,10.20
2019-02-28T11:23:23.462Z,11.77
2019-02-28T11:28:29.313Z,11.67
2019-02-28T11:33:36.472Z,8.67
2019-02-28T11:38:42.056Z,12.63
2019-02-28T11:43:47.739Z,9.63
2019-02-28T11:48:54.130Z,11.20
2019-02-28T11:54:00.549Z,26.60
2019-02-28T11:59:06.219Z,12.90
2019-02-28T12:04:11.752Z,7.20
2019-02-28T12:09:19.231Z,7.20
2019-02-28T12:14:26.461Z,6.67
2019-02-28T12:19:32.032Z,6.40
2019-02-28T12:24:38.518Z,6.07
2019-02-28T12:29:45.566Z,5.50
2019-02-28T12:34:50.817Z,4.37
2019-02-28T12:39:56.143Z,4.17
2019-02-28T12:45:01.510Z,3.77
2019-02-28T12:50:09.815Z,27.47
2019-02-28T12:55:18.543Z,9.03
2019-02-28T13:00:35.074Z,3.07
2019-02-28T13:05:40.729Z,3.47
2019-02-28T13:10:47.317Z,2.50
2019-02-28T13:15:52.725Z,2.40
2019-02-28T13:20:58.029Z,2.27
2019-02-28T13:26:03.399Z,4.80
2019-02-28T13:31:08.963Z,1.97
2019-02-28T13:36:14.112Z,3.63
2019-02-28T13:41:22.129Z,4.03
2019-02-28T13:46:32.342Z,2.70
2019-02-28T13:51:40.479Z,5.07
2019-02-28T13:56:40.985Z,4.63
2019-02-28T14:01:46.329Z,4.80
2019-02-28T14:06:52.531Z,2.97
2019-02-28T14:11:59.033Z,3.70
2019-02-28T14:17:04.556Z,2.70
2019-02-28T14:22:11.565Z,2.83
2019-02-28T14:27:17.927Z,3.13
2019-02-28T14:32:23.215Z,1.90
2019-02-28T14:37:28.548Z,2.27
2019-02-28T14:42:33.908Z,2.57
2019-02-28T14:47:39.166Z,2.10
2019-02-28T14:52:45.848Z,2.50
2019-02-28T14:57:51.417Z,2.37
2019-02-28T15:02:59.483Z,2.07
2019-02-28T15:08:04.393Z,2.40
2019-02-28T15:13:10.063Z,2.10
2019-02-28T15:18:15.456Z,1.93
2019-02-28T15:23:20.581Z,2.03
2019-02-28T15:28:25.875Z,1.70
2019-02-28T15:33:31.259Z,1.73
2019-02-28T15:38:36.642Z,3.73
2019-02-28T15:43:41.766Z,3.10
2019-02-28T15:48:46.991Z,3.40
2019-02-28T15:53:52.134Z,2.07
2019-02-28T15:58:57.629Z,34.47
2019-02-28T16:04:03.247Z,24.60
2019-02-28T16:09:11.558Z,5.20
2019-02-28T16:14:17.235Z,3.40
2019-02-28T16:19:22.832Z,3.77
2019-02-28T16:24:28.358Z,3.60
2019-02-28T16:29:33.564Z,4.33
2019-02-28T16:34:42.324Z,5.87
2019-02-28T16:39:49.158Z,6.97
2019-02-28T16:44:52.979Z,10.57
2019-02-28T16:49:58.228Z,6.23
2019-02-28T16:55:03.905Z,6.37
2019-02-28T17:00:15.986Z,7.00
2019-02-28T17:05:26.743Z,13.63
2019-02-28T17:10:33.384Z,9.17
2019-02-28T17:15:40.235Z,13.17
2019-02-28T17:20:49.118Z,12.17
2019-02-28T17:25:56.527Z,13.13
2019-02-28T17:31:20.930Z,11.43
2019-02-28T17:36:27.979Z,18.03
2019-02-28T17:41:33.935Z,13.57
2019-02-28T17:46:40.343Z,11.67
2019-02-28T17:51:48.793Z,13.20
2019-02-28T17:57:12.202Z,14.57
2019-02-28T18:02:47.765Z,13.93
2019-02-28T18:08:05.201Z,14.73
2019-02-28T18:13:16.224Z,16.30
2019-02-28T18:18:35.686Z,18.53
2019-02-28T18:24:04.285Z,11.80
2019-02-28T18:29:33.073Z,12.23
2019-02-28T18:34:38.477Z,11.00
2019-02-28T18:39:44.669Z,10.63
2019-02-28T18:44:50.963Z,11.10
2019-02-28T18:49:56.477Z,11.00
2019-02-28T18:55:06.032Z,12.03
2019-02-28T19:00:13.344Z,10.57
2019-02-28T19:05:18.804Z,10.10
2019-02-28T19:10:24.523Z,12.97
2019-02-28T19:15:31.278Z,12.43
2019-02-28T19:20:36.717Z,10.00
2019-02-28T19:25:42.564Z,43.27
2019-02-28T19:30:48.097Z,11.03
2019-02-28T19:35:54.641Z,99.77
2019-02-28T19:41:00.010Z,9.67
2019-02-28T19:46:05.655Z,11.33
2019-02-28T19:51:10.879Z,10.60
2019-02-28T19:56:16.380Z,13.13
2019-02-28T20:01:21.941Z,10.90
2019-02-28T20:06:27.301Z,10.57
2019-02-28T20:11:32.998Z,10.20
2019-02-28T20:16:38.423Z,12.87
2019-02-28T20:21:44.273Z,32.73
2019-02-28T20:26:50.570Z,11.27
2019-02-28T20:31:56.033Z,15.47
2019-02-28T20:37:01.401Z,13.57
2019-02-28T20:42:07.963Z,11.67
2019-02-28T20:47:13.518Z,9.97
2019-02-28T20:52:18.768Z,11.23
2019-02-28T20:57:24.069Z,10.13
2019-02-28T21:02:29.495Z,10.73
2019-02-28T21:07:35.391Z,12.10
2019-02-28T21:12:40.964Z,11.50
2019-02-28T21:17:46.231Z,9.90
2019-02-28T21:22:51.665Z,8.67
2019-02-28T21:27:57.247Z,8.80
2019-02-28T21:33:02.982Z,10.60
2019-02-28T21:38:08.340Z,10.53
2019-02-28T21:43:13.711Z,9.60
2019-02-28T21:48:19.190Z,7.17
2019-02-28T21:53:24.422Z,8.50
2019-02-28T21:58:31.219Z,6.90
2019-02-28T22:03:36.791Z,6.30
2019-02-28T22:08:42.154Z,7.47
2019-02-28T22:13:47.619Z,7.90
2019-02-28T22:18:52.849Z,8.83
2019-02-28T22:23:58.132Z,6.83
2019-02-28T22:29:03.454Z,7.47
2019-02-28T22:34:13.364Z,6.93
2019-02-28T22:39:18.697Z,7.20
2019-02-28T22:44:24.072Z,6.67
2019-02-28T22:49:29.739Z,6.80
2019-02-28T22:54:34.996Z,6.60
2019-02-28T22:59:40.361Z,6.67
2019-02-28T23:04:46.059Z,6.67
2019-02-28T23:09:51.496Z,6.97
2019-02-28T23:14:56.763Z,7.00
2019-02-28T23:20:02.203Z,6.67
2019-02-28T23:25:08.775Z,7.23
2019-02-28T23:30:29.991Z,7.50
2019-02-28T23:35:35.858Z,7.63
2019-02-28T23:40:41.444Z,8.47
2019-02-28T23:45:47.008Z,7.00
2019-02-28T23:50:52.490Z,8.83
2019-02-28T23:55:58.236Z,8.93
